Time;durP1;ratioP1;P1;durP2;ratioP2;P2;SDS_P1;SDS_P2;PMS_P1;PMS_P2;Temp;Humidity;BMP_temperature;BMP_pressure;BME280_temperature;BME280_humidity;BME280_pressure;Samples;Min_cycle;Max_cycle;Signal;HPM_P1;HPM_P2
2022/01/27 00:01:22;;;;;;;36.55;8.73;;;5.80;78.70;;;;;;4156826;28;20029;-32
2022/01/27 00:03:28;;;;;;;26.55;8.38;;;5.80;78.60;;;;;;4157453;28;20412;-32
2022/01/27 00:05:29;;;;;;;26.33;8.15;;;5.80;78.70;;;;;;4153021;28;20035;-32
2022/01/27 00:07:30;;;;;;;39.38;9.18;;;5.80;78.60;;;;;;4152960;28;20685;-32
2022/01/27 00:10:06;;;;;;;35.65;8.57;;;5.80;78.60;;;;;;4145342;28;20026;-32
2022/01/27 00:12:07;;;;;;;33.55;9.30;;;5.80;78.50;;;;;;4157585;28;20037;-32
2022/01/27 00:14:10;;;;;;;35.58;8.65;;;5.80;78.60;;;;;;4159004;28;20044;-32
2022/01/27 00:16:16;;;;;;;36.15;8.80;;;5.90;78.60;;;;;;4150093;28;20091;-32
2022/01/27 00:18:20;;;;;;;26.35;7.95;;;5.80;78.60;;;;;;4149855;28;20029;-32
2022/01/27 00:20:20;;;;;;;33.20;8.88;;;5.80;78.60;;;;;;4159134;28;20037;-32
2022/01/27 00:22:21;;;;;;;31.35;8.73;;;5.80;78.60;;;;;;4158108;28;20040;-32
2022/01/27 00:24:21;;;;;;;33.25;7.90;;;5.80;78.50;;;;;;4153713;28;20035;-32
2022/01/27 00:26:22;;;;;;;34.95;9.18;;;5.90;78.70;;;;;;4156468;28;20076;-32
2022/01/27 00:28:23;;;;;;;37.45;9.23;;;5.80;78.50;;;;;;4155646;28;20041;-32
2022/01/27 00:30:23;;;;;;;42.92;10.23;;;5.80;78.60;;;;;;4152145;28;20025;-33
2022/01/27 00:32:24;;;;;;;35.42;8.55;;;5.80;78.60;;;;;;4160226;28;20028;-32
2022/01/27 00:34:24;;;;;;;32.42;8.30;;;5.80;78.50;;;;;;4163299;28;20051;-32
2022/01/27 00:36:25;;;;;;;47.05;8.98;;;5.90;78.70;;;;;;4154744;28;20640;-32
2022/01/27 00:38:26;;;;;;;28.90;9.00;;;5.90;78.50;;;;;;4155651;28;20033;-32
2022/01/27 00:40:26;;;;;;;45.15;9.18;;;5.90;78.50;;;;;;4158485;28;20029;-33
2022/01/27 00:42:28;;;;;;;29.30;9.10;;;5.90;78.40;;;;;;4158524;28;20035;-34
2022/01/27 00:44:29;;;;;;;36.70;8.55;;;5.90;78.40;;;;;;4152524;28;20025;-32
2022/01/27 00:46:32;;;;;;;39.85;9.10;;;5.90;78.40;;;;;;4155538;28;20064;-33
2022/01/27 00:48:33;;;;;;;30.73;8.52;;;5.90;78.40;;;;;;4156564;28;20037;-32
2022/01/27 00:50:35;;;;;;;28.55;8.80;;;5.90;78.40;;;;;;4157345;28;20556;-33
2022/01/27 00:52:43;;;;;;;37.72;9.40;;;5.90;78.30;;;;;;4157257;28;20033;-32
2022/01/27 00:54:44;;;;;;;41.40;9.73;;;5.90;78.40;;;;;;4155406;28;20463;-33
2022/01/27 00:56:55;;;;;;;33.25;9.20;;;5.90;78.20;;;;;;4152357;28;20033;-33
2022/01/27 00:59:15;;;;;;;40.38;10.10;;;5.90;78.30;;;;;;4151527;28;21585;-33
2022/01/27 01:01:19;;;;;;;33.50;9.95;;;5.90;78.30;;;;;;4156935;28;20033;-34
2022/01/27 01:03:28;;;;;;;36.78;10.35;;;5.90;78.30;;;;;;4157924;28;20032;-33
2022/01/27 01:07:37;;;;;;;;;;;5.90;78.20;;;;;;4157637;28;20037;-33
2022/01/27 01:16:05;;;;;;;33.53;11.05;;;5.90;78.20;;;;;;4152501;28;20040;-33
2022/01/27 01:20:30;;;;;;;40.10;11.82;;;5.90;78.30;;;;;;4151704;28;20024;-33
2022/01/27 01:33:58;;;;;;;49.80;13.52;;;5.90;79.10;;;;;;4157627;28;20412;-33
2022/01/27 01:36:13;;;;;;;36.67;12.23;;;5.90;79.20;;;;;;4156500;28;20037;-33
2022/01/27 01:38:21;;;;;;;50.45;14.68;;;5.90;79.40;;;;;;4157378;28;20033;-32
2022/01/27 01:40:22;;;;;;;47.97;13.38;;;5.90;79.80;;;;;;4140934;28;20026;-33
2022/01/27 01:42:22;;;;;;;42.58;13.00;;;5.80;80.00;;;;;;4156166;28;20056;-32
2022/01/27 01:44:23;;;;;;;43.30;12.45;;;5.70;80.10;;;;;;4147150;28;20097;-32
2022/01/27 01:46:24;;;;;;;41.63;13.60;;;5.80;80.40;;;;;;4155766;28;20056;-33
2022/01/27 01:48:25;;;;;;;47.00;12.60;;;5.70;80.70;;;;;;4159402;28;20419;-33
2022/01/27 01:50:25;;;;;;;44.40;12.98;;;5.70;80.90;;;;;;4159674;28;20025;-33
2022/01/27 01:52:26;;;;;;;44.30;12.43;;;5.70;81.30;;;;;;4157945;28;20022;-32
2022/01/27 01:54:26;;;;;;;44.22;12.70;;;5.70;81.50;;;;;;4149266;28;20816;-32
2022/01/27 01:56:27;;;;;;;44.22;13.30;;;5.60;81.60;;;;;;4153854;28;20048;-32
2022/01/27 01:58:28;;;;;;;44.33;12.27;;;5.60;81.70;;;;;;4158587;28;20029;-32
2022/01/27 02:00:29;;;;;;;51.08;12.80;;;5.60;82.00;;;;;;4161185;28;20484;-32
2022/01/27 02:02:29;;;;;;;29.33;10.40;;;5.60;82.20;;;;;;4164703;28;20022;-32
2022/01/27 02:04:30;;;;;;;28.65;10.80;;;5.60;82.30;;;;;;4157278;28;20901;-32
2022/01/27 02:06:36;;;;;;;35.67;10.15;;;5.50;82.50;;;;;;4153587;28;20025;-32
2022/01/27 02:08:45;;;;;;;40.55;10.60;;;5.50;82.80;;;;;;4153040;28;20049;-32
2022/01/27 02:18:06;;;;;;;35.78;9.45;;;5.50;83.40;;;;;;4075130;29;20126;-32
2022/01/27 02:20:08;;;;;;;24.23;8.70;;;5.50;83.50;;;;;;4158294;28;20064;-32
2022/01/27 02:22:08;;;;;;;31.52;9.13;;;5.40;83.50;;;;;;4160142;28;20080;-34
2022/01/27 02:24:09;;;;;;;26.75;8.05;;;5.40;83.70;;;;;;4155364;28;20041;-32
2022/01/27 02:26:09;;;;;;;26.08;8.40;;;5.40;83.70;;;;;;4160950;28;20033;-32
2022/01/27 02:28:10;;;;;;;20.50;7.70;;;5.40;83.80;;;;;;4158787;28;20703;-33
2022/01/27 02:30:11;;;;;;;23.85;8.70;;;5.40;83.80;;;;;;4153839;28;20030;-32
2022/01/27 02:32:12;;;;;;;28.30;8.95;;;5.40;83.90;;;;;;4151895;28;20650;-32
2022/01/27 02:34:13;;;;;;;22.95;8.70;;;5.40;83.90;;;;;;4167313;28;20037;-32
2022/01/27 02:36:13;;;;;;;22.80;8.32;;;5.40;83.90;;;;;;4163821;28;20141;-33
2022/01/27 02:38:14;;;;;;;25.23;8.73;;;5.40;83.90;;;;;;4155276;28;20025;-33
2022/01/27 02:40:23;;;;;;;35.28;13.18;;;5.50;84.00;;;;;;4164031;28;20126;-32
2022/01/27 02:42:31;;;;;;;43.63;10.88;;;5.40;84.10;;;;;;4160547;28;20033;-33
2022/01/27 02:44:31;;;;;;;32.40;10.48;;;5.40;84.20;;;;;;4158488;23;20112;-84
2022/01/27 02:46:41;;;;;;;28.02;10.57;;;5.50;84.30;;;;;;4178191;28;20490;-84
2022/01/27 02:48:41;;;;;;;39.55;12.13;;;5.50;84.30;;;;;;4166177;28;20029;-84
2022/01/27 02:50:43;;;;;;;42.92;13.30;;;5.50;84.40;;;;;;4163813;28;20376;-83
2022/01/27 02:52:44;;;;;;;41.38;12.48;;;5.50;84.40;;;;;;4164726;28;20103;-83
2022/01/27 02:54:44;;;;;;;43.70;13.60;;;5.50;84.50;;;;;;4159393;28;20114;-82
2022/01/27 02:56:47;;;;;;;40.78;12.52;;;5.50;84.50;;;;;;4167295;28;20444;-82
2022/01/27 02:58:48;;;;;;;53.08;14.20;;;5.50;84.40;;;;;;4158597;28;21679;-82
2022/01/27 03:00:49;;;;;;;44.25;14.68;;;5.50;84.60;;;;;;4164852;28;20064;-82
2022/01/27 03:02:49;;;;;;;53.17;15.82;;;5.50;84.60;;;;;;4161675;28;22327;-83
2022/01/27 03:04:50;;;;;;;61.00;15.30;;;5.60;84.70;;;;;;4158711;28;20044;-84
2022/01/27 03:06:51;;;;;;;57.13;14.38;;;5.50;84.60;;;;;;4178943;28;20029;-84
2022/01/27 03:08:52;;;;;;;48.92;14.77;;;5.60;84.70;;;;;;4158088;28;20026;-84
2022/01/27 03:11:02;;;;;;;59.50;14.65;;;5.60;84.60;;;;;;4146370;28;20034;-84
2022/01/27 03:13:03;;;;;;;76.10;18.52;;;5.60;84.60;;;;;;4169990;28;20034;-84
2022/01/27 03:15:04;;;;;;;57.40;15.98;;;5.60;84.60;;;;;;4162181;28;20040;-84
2022/01/27 03:17:05;;;;;;;56.08;14.15;;;5.60;84.60;;;;;;4146168;28;20080;-84
2022/01/27 03:19:06;;;;;;;46.00;14.23;;;5.60;84.60;;;;;;4157483;28;20049;-83
2022/01/27 03:21:07;;;;;;;57.97;15.07;;;5.60;84.60;;;;;;4159416;28;20037;-84
2022/01/27 03:23:09;;;;;;;52.88;14.65;;;5.60;84.50;;;;;;4158262;28;20096;-84
2022/01/27 03:25:09;;;;;;;44.17;12.45;;;5.60;84.60;;;;;;4159912;28;20079;-84
2022/01/27 03:27:14;;;;;;;46.83;12.23;;;5.60;84.60;;;;;;4145752;28;20117;-83
2022/01/27 03:29:17;;;;;;;47.72;11.85;;;5.60;84.60;;;;;;4156632;28;20505;-85
2022/01/27 03:31:17;;;;;;;45.20;11.55;;;5.60;84.60;;;;;;4152857;28;20045;-85
2022/01/27 03:33:18;;;;;;;40.90;10.68;;;5.60;84.70;;;;;;4153566;28;20565;-84
2022/01/27 03:35:18;;;;;;;48.65;13.13;;;5.60;84.70;;;;;;4156969;28;20087;-84
2022/01/27 03:37:19;;;;;;;45.47;11.93;;;5.60;84.80;;;;;;4162383;28;20018;-84
2022/01/27 03:39:22;;;;;;;55.00;12.43;;;5.60;85.00;;;;;;4159641;28;20025;-84
2022/01/27 03:41:23;;;;;;;48.13;11.57;;;5.70;85.20;;;;;;4157439;28;20179;-84
2022/01/27 03:43:24;;;;;;;40.72;12.20;;;5.60;85.30;;;;;;4157871;28;20322;-84
2022/01/27 03:45:24;;;;;;;43.80;11.32;;;5.60;85.30;;;;;;4157389;28;20068;-84
2022/01/27 03:47:25;;;;;;;47.17;10.88;;;5.60;85.40;;;;;;4145803;28;20030;-84
2022/01/27 03:49:26;;;;;;;44.90;11.25;;;5.50;85.40;;;;;;4156982;28;20048;-84
2022/01/27 03:51:27;;;;;;;41.80;10.98;;;5.50;85.50;;;;;;4154200;28;20069;-84
2022/01/27 03:53:27;;;;;;;45.83;10.73;;;5.50;85.60;;;;;;4160401;28;20032;-83
2022/01/27 03:55:28;;;;;;;36.50;10.40;;;5.50;85.60;;;;;;4159823;28;20617;-84
2022/01/27 03:57:28;;;;;;;37.33;10.02;;;5.50;85.70;;;;;;4162022;28;20047;-84
2022/01/27 03:59:29;;;;;;;40.15;8.85;;;5.50;85.90;;;;;;4158474;28;20060;-84
2022/01/27 04:01:31;;;;;;;35.15;9.98;;;5.50;86.00;;;;;;4171615;28;20100;-83
2022/01/27 04:03:33;;;;;;;37.67;8.80;;;5.50;86.00;;;;;;4159610;28;20025;-85
2022/01/27 04:05:40;;;;;;;30.92;8.48;;;5.50;86.20;;;;;;4155569;28;20506;-85
2022/01/27 04:07:42;;;;;;;35.00;8.65;;;5.60;86.20;;;;;;4159595;28;20054;-85
2022/01/27 04:09:42;;;;;;;29.02;7.63;;;5.60;86.30;;;;;;4158794;28;20080;-86
2022/01/27 04:11:43;;;;;;;36.53;8.65;;;5.50;86.20;;;;;;4153342;28;20045;-85
2022/01/27 04:13:44;;;;;;;37.63;8.77;;;5.60;86.40;;;;;;4151647;28;20051;-86
2022/01/27 04:15:45;;;;;;;26.70;7.43;;;5.50;86.40;;;;;;4159410;28;20029;-86
2022/01/27 04:17:46;;;;;;;33.40;7.35;;;5.50;86.40;;;;;;4174872;28;20052;-85
2022/01/27 04:19:47;;;;;;;24.98;7.20;;;5.50;86.50;;;;;;4160234;28;20033;-86
2022/01/27 04:21:47;;;;;;;26.85;6.80;;;5.50;86.50;;;;;;4156844;28;20041;-84
2022/01/27 04:23:49;;;;;;;23.98;6.28;;;5.50;86.60;;;;;;4172252;28;20032;-85
2022/01/27 04:25:50;;;;;;;23.17;6.25;;;5.50;86.60;;;;;;4157195;28;20108;-84
2022/01/27 04:27:55;;;;;;;13.90;5.70;;;5.50;86.60;;;;;;4156510;28;20498;-85
2022/01/27 04:29:56;;;;;;;21.38;6.13;;;5.60;86.70;;;;;;4158538;28;20113;-84
2022/01/27 04:31:59;;;;;;;27.45;6.13;;;5.50;86.70;;;;;;4157037;28;20415;-85
2022/01/27 04:34:00;;;;;;;19.33;5.55;;;5.60;86.90;;;;;;4166385;28;20041;-85
2022/01/27 04:36:06;;;;;;;20.38;5.95;;;5.60;86.90;;;;;;4159464;28;20025;-84
2022/01/27 04:40:15;;;;;;;21.73;5.75;;;5.60;86.90;;;;;;4159086;28;20032;-85
2022/01/27 04:42:27;;;;;;;22.65;6.22;;;5.60;87.10;;;;;;4157581;28;20544;-84
2022/01/27 04:44:38;;;;;;;26.67;5.90;;;5.60;87.10;;;;;;4166935;28;20403;-83
2022/01/27 04:46:51;;;;;;;20.60;5.57;;;5.50;87.20;;;;;;4160598;28;20029;-84
2022/01/27 04:48:56;;;;;;;24.83;6.28;;;5.50;87.40;;;;;;4158580;28;20395;-84
2022/01/27 04:51:04;;;;;;;27.25;6.38;;;5.60;87.50;;;;;;4140542;28;20042;-84
2022/01/27 04:53:09;;;;;;;29.67;6.68;;;5.60;87.60;;;;;;4142886;28;20040;-85
2022/01/27 04:55:12;;;;;;;27.27;7.45;;;5.60;87.70;;;;;;4156080;28;20029;-86
2022/01/27 04:57:12;;;;;;;25.30;6.50;;;5.60;87.80;;;;;;4159806;28;20022;-85
2022/01/27 04:59:21;;;;;;;24.02;6.47;;;5.60;87.90;;;;;;4158439;28;20459;-85
2022/01/27 05:01:29;;;;;;;25.17;6.10;;;5.60;87.90;;;;;;4169941;28;20025;-82
2022/01/27 05:03:47;;;;;;;24.63;7.50;;;5.60;88.00;;;;;;4157211;28;20065;-82
2022/01/27 05:05:48;;;;;;;26.20;7.32;;;5.60;88.00;;;;;;4140108;28;20025;-83
2022/01/27 05:07:55;;;;;;;20.35;6.88;;;5.60;88.10;;;;;;4155443;28;20033;-83
2022/01/27 05:10:01;;;;;;;31.05;8.40;;;5.60;88.20;;;;;;4142333;28;20583;-83
2022/01/27 05:12:12;;;;;;;27.38;7.60;;;5.60;88.20;;;;;;4158142;28;20034;-83
2022/01/27 05:14:19;;;;;;;25.70;7.38;;;5.60;88.30;;;;;;4157065;28;20037;-83
2022/01/27 05:16:20;;;;;;;31.05;6.88;;;5.60;88.30;;;;;;4157888;28;20076;-83
2022/01/27 05:18:21;;;;;;;24.35;6.20;;;5.70;88.30;;;;;;4154317;28;20422;-83
2022/01/27 05:20:21;;;;;;;23.00;5.90;;;5.60;88.30;;;;;;4157872;28;20105;-83
2022/01/27 05:22:22;;;;;;;22.88;6.18;;;5.60;88.40;;;;;;4140636;28;20184;-83
2022/01/27 05:24:23;;;;;;;20.42;6.50;;;5.60;88.50;;;;;;4154622;28;20044;-82
2022/01/27 05:26:23;;;;;;;26.95;6.80;;;5.60;88.70;;;;;;4157996;28;20033;-82
2022/01/27 05:28:24;;;;;;;26.42;6.10;;;5.60;88.90;;;;;;4155740;28;20379;-82
2022/01/27 05:30:25;;;;;;;17.05;5.18;;;5.60;89.00;;;;;;4138511;28;20034;-82
2022/01/27 05:32:25;;;;;;;33.00;7.03;;;5.80;89.00;;;;;;4156503;28;20068;-83
2022/01/27 05:34:26;;;;;;;22.08;6.28;;;5.60;88.90;;;;;;4157930;28;20027;-83
2022/01/27 05:36:26;;;;;;;26.27;7.70;;;5.70;89.00;;;;;;4154357;28;20041;-83
2022/01/27 05:38:27;;;;;;;36.15;8.55;;;5.70;89.00;;;;;;4159516;28;20056;-83
2022/01/27 05:40:27;;;;;;;29.92;7.40;;;5.70;89.00;;;;;;4158933;28;20034;-83
2022/01/27 05:42:28;;;;;;;36.92;8.70;;;5.70;89.20;;;;;;4158859;28;20248;-83
2022/01/27 05:44:31;;;;;;;37.58;9.48;;;5.70;89.30;;;;;;4156387;28;20118;-82
2022/01/27 05:46:31;;;;;;;44.83;9.80;;;5.70;89.40;;;;;;4150035;28;20038;-82
2022/01/27 05:48:32;;;;;;;49.20;9.35;;;5.80;89.50;;;;;;4157368;28;20063;-83
2022/01/27 05:50:32;;;;;;;53.60;11.85;;;5.80;89.50;;;;;;4156944;28;20092;-83
2022/01/27 05:52:33;;;;;;;46.92;9.45;;;5.80;89.60;;;;;;4165137;28;20037;-83
2022/01/27 05:54:34;;;;;;;53.25;10.68;;;5.80;89.70;;;;;;4160548;28;20029;-83
2022/01/27 05:56:34;;;;;;;39.08;9.45;;;5.80;89.60;;;;;;4158505;28;20418;-83
2022/01/27 05:58:35;;;;;;;64.93;9.95;;;5.80;89.60;;;;;;4155276;28;20416;-83
2022/01/27 06:00:36;;;;;;;48.42;9.07;;;5.80;89.60;;;;;;4160267;28;20033;-83
2022/01/27 06:02:37;;;;;;;48.95;9.48;;;5.90;89.70;;;;;;4151916;28;20026;-83
2022/01/27 06:04:37;;;;;;;52.38;9.98;;;5.90;89.70;;;;;;4149120;28;20034;-83
2022/01/27 06:06:38;;;;;;;49.45;9.52;;;5.90;89.70;;;;;;4146346;28;20025;-82
2022/01/27 06:08:39;;;;;;;47.38;10.73;;;5.90;89.70;;;;;;4157102;28;20045;-83
2022/01/27 06:10:39;;;;;;;63.35;11.25;;;6.00;89.90;;;;;;4153708;28;20038;-83
2022/01/27 06:12:51;;;;;;;55.10;10.63;;;6.00;89.80;;;;;;4152666;28;20041;-83
2022/01/27 06:14:52;;;;;;;55.97;9.88;;;6.00;89.80;;;;;;4143926;28;20073;-83
2022/01/27 06:16:52;;;;;;;67.03;11.48;;;6.00;89.80;;;;;;4161614;28;20068;-83
2022/01/27 06:18:53;;;;;;;60.38;10.20;;;6.00;89.80;;;;;;4155961;28;20079;-82
2022/01/27 06:20:59;;;;;;;45.67;9.93;;;6.10;89.60;;;;;;4156518;28;20120;-82
2022/01/27 06:23:00;;;;;;;64.38;10.95;;;6.10;89.60;;;;;;4156102;28;20364;-83
2022/01/27 06:25:01;;;;;;;63.72;10.13;;;6.10;89.40;;;;;;4163271;28;20115;-83
2022/01/27 06:27:02;;;;;;;51.40;10.10;;;6.10;89.40;;;;;;4151317;28;20026;-83
2022/01/27 06:29:03;;;;;;;58.15;9.65;;;6.10;89.40;;;;;;4141965;28;20159;-82
2022/01/27 06:31:03;;;;;;;52.70;9.40;;;6.10;89.30;;;;;;4170007;28;20041;-83
2022/01/27 06:33:04;;;;;;;64.60;10.07;;;6.10;89.30;;;;;;4159652;28;20423;-83
2022/01/27 06:35:06;;;;;;;54.25;9.85;;;6.10;89.20;;;;;;4174843;28;20495;-84
2022/01/27 06:37:06;;;;;;;49.95;9.38;;;6.20;89.30;;;;;;4169297;28;20044;-82
2022/01/27 06:39:07;;;;;;;47.22;10.00;;;6.20;89.30;;;;;;4153811;28;20030;-83
2022/01/27 06:41:10;;;;;;;63.45;10.02;;;6.20;89.10;;;;;;4160461;28;20039;-82
2022/01/27 06:43:14;;;;;;;;;;;6.20;89.10;;;;;;4138765;28;20074;-83
2022/01/27 06:45:15;;;;;;;55.67;10.20;;;6.20;89.20;;;;;;4159569;28;19928;-84
2022/01/27 06:47:15;;;;;;;58.72;8.75;;;6.30;89.00;;;;;;4147759;28;20033;-83
2022/01/27 06:49:17;;;;;;;55.75;8.90;;;6.30;89.10;;;;;;4159030;28;20102;-83
2022/01/27 06:51:18;;;;;;;51.13;8.20;;;6.30;88.90;;;;;;4161818;28;20033;-83
2022/01/27 06:53:19;;;;;;;42.75;8.63;;;6.30;89.00;;;;;;4155531;28;20503;-82
2022/01/27 06:55:21;;;;;;;47.97;8.38;;;6.30;89.00;;;;;;4155221;28;20402;-82
2022/01/27 06:57:23;;;;;;;56.53;10.17;;;6.40;88.80;;;;;;4159351;28;20060;-83
2022/01/27 06:59:23;;;;;;;47.78;9.50;;;6.40;88.70;;;;;;4154999;28;20030;-82
2022/01/27 07:01:24;;;;;;;63.90;10.68;;;6.40;88.60;;;;;;4158467;28;20536;-82
2022/01/27 07:03:24;;;;;;;41.28;8.60;;;6.40;88.40;;;;;;4158902;28;20041;-82
2022/01/27 07:05:25;;;;;;;42.22;8.45;;;6.60;88.50;;;;;;4160422;28;20040;-83
2022/01/27 07:07:25;;;;;;;44.28;8.23;;;6.50;88.20;;;;;;4160629;28;20033;-83
2022/01/27 07:09:26;;;;;;;47.15;8.73;;;6.50;88.00;;;;;;4160893;28;20068;-83
2022/01/27 07:11:27;;;;;;;43.17;7.32;;;6.50;87.80;;;;;;4164473;28;20033;-82
2022/01/27 07:13:28;;;;;;;43.47;7.40;;;6.50;87.80;;;;;;4161021;28;20386;-83
2022/01/27 07:15:30;;;;;;;38.30;7.88;;;6.50;87.70;;;;;;4158125;28;20048;-82
2022/01/27 07:17:30;;;;;;;59.38;8.57;;;6.60;87.60;;;;;;4157592;28;20018;-83
2022/01/27 07:19:31;;;;;;;39.35;6.63;;;6.60;87.50;;;;;;4162125;28;20095;-82
2022/01/27 07:21:32;;;;;;;35.65;7.18;;;6.50;87.50;;;;;;4162217;28;20026;-83
2022/01/27 07:23:32;;;;;;;44.22;8.02;;;6.60;87.50;;;;;;4170093;28;20033;-82
2022/01/27 07:25:33;;;;;;;45.95;8.13;;;6.60;87.30;;;;;;4175921;28;20608;-82
2022/01/27 07:27:34;;;;;;;49.97;8.07;;;6.60;87.10;;;;;;4158856;28;20029;-82
2022/01/27 07:29:35;;;;;;;44.58;7.70;;;6.60;87.20;;;;;;4147029;28;20045;-82
2022/01/27 07:31:35;;;;;;;41.65;7.40;;;6.60;87.10;;;;;;4144955;28;20476;-83
2022/01/27 07:33:36;;;;;;;52.78;7.43;;;6.60;87.20;;;;;;4172265;28;20044;-83
2022/01/27 07:35:37;;;;;;;44.08;7.65;;;6.60;87.10;;;;;;4148010;28;20058;-83
2022/01/27 07:37:40;;;;;;;57.88;8.05;;;6.60;87.10;;;;;;4165269;28;20105;-83
2022/01/27 07:39:41;;;;;;;45.72;7.93;;;6.60;87.10;;;;;;4161457;28;20160;-83
2022/01/27 07:41:42;;;;;;;39.45;6.55;;;6.70;87.00;;;;;;4168084;28;20033;-83
2022/01/27 07:43:42;;;;;;;35.10;6.15;;;6.70;86.90;;;;;;4180916;28;20028;-83
2022/01/27 07:45:43;;;;;;;39.97;7.13;;;6.70;86.80;;;;;;4145906;28;20797;-84
2022/01/27 07:47:44;;;;;;;43.70;7.13;;;6.80;86.40;;;;;;4163690;28;20024;-84
2022/01/27 07:49:44;;;;;;;47.30;6.93;;;6.80;86.20;;;;;;4142301;28;20026;-84
2022/01/27 07:51:45;;;;;;;45.42;7.00;;;6.80;86.00;;;;;;4141135;28;20038;-83
2022/01/27 07:53:46;;;;;;;43.35;7.10;;;6.80;85.70;;;;;;4165180;28;20022;-83
2022/01/27 07:55:47;;;;;;;37.15;6.03;;;6.80;85.20;;;;;;4159315;28;20034;-83
2022/01/27 07:57:48;;;;;;;42.35;6.85;;;6.90;84.80;;;;;;4127485;28;20026;-84
2022/01/27 07:59:49;;;;;;;40.78;6.05;;;6.90;84.60;;;;;;4147363;28;20030;-83
2022/01/27 08:01:49;;;;;;;40.97;6.68;;;6.90;84.10;;;;;;4156933;28;20037;-83
2022/01/27 08:03:50;;;;;;;49.15;6.22;;;6.90;83.70;;;;;;4159920;28;20101;-84
2022/01/27 08:05:51;;;;;;;40.58;6.78;;;6.90;83.50;;;;;;4175786;28;20044;-83
2022/01/27 08:07:51;;;;;;;46.90;6.45;;;6.90;83.30;;;;;;4152246;28;20509;-84
2022/01/27 08:09:52;;;;;;;43.47;6.18;;;6.90;83.40;;;;;;4156666;28;20521;-83
2022/01/27 08:11:52;;;;;;;50.15;7.60;;;6.90;83.30;;;;;;4165312;28;20054;-83
2022/01/27 08:13:53;;;;;;;46.58;6.38;;;6.90;83.00;;;;;;4160062;28;20072;-83
2022/01/27 08:15:54;;;;;;;37.53;6.07;;;6.90;83.10;;;;;;4151203;28;20029;-84
2022/01/27 08:17:54;;;;;;;50.78;6.30;;;7.00;83.20;;;;;;4169172;28;20055;-83
2022/01/27 08:19:55;;;;;;;47.15;6.20;;;7.00;83.00;;;;;;4175272;28;20021;-83
2022/01/27 08:21:55;;;;;;;39.35;5.35;;;7.00;82.70;;;;;;4158317;28;20026;-83
2022/01/27 08:23:57;;;;;;;49.63;7.63;;;7.00;82.60;;;;;;4161925;28;20104;-83
2022/01/27 08:26:07;;;;;;;43.05;6.90;;;7.00;82.40;;;;;;4157989;28;20030;-83
2022/01/27 08:28:18;;;;;;;48.78;6.55;;;7.00;81.90;;;;;;4162715;28;20434;-83
2022/01/27 08:30:21;;;;;;;42.30;6.22;;;7.10;82.00;;;;;;4155869;28;20443;-83
2022/01/27 08:32:31;;;;;;;57.35;6.47;;;7.10;81.80;;;;;;4164238;28;20424;-84
2022/01/27 08:34:37;;;;;;;41.30;6.22;;;7.10;81.80;;;;;;4179981;28;20059;-84
2022/01/27 08:36:38;;;;;;;51.53;6.85;;;7.10;81.70;;;;;;4159980;28;20085;-84
2022/01/27 08:38:43;;;;;;;42.45;5.57;;;7.10;81.60;;;;;;4157658;28;20038;-84
2022/01/27 08:40:48;;;;;;;48.05;6.93;;;7.10;81.40;;;;;;4173486;28;20022;-83
2022/01/27 08:42:48;;;;;;;45.55;6.97;;;7.10;81.40;;;;;;4178986;28;20029;-83
2022/01/27 08:44:49;;;;;;;42.05;5.43;;;7.10;81.50;;;;;;4150780;28;20045;-83
2022/01/27 08:46:50;;;;;;;57.42;6.05;;;7.10;81.40;;;;;;4151536;28;20041;-83
2022/01/27 08:48:50;;;;;;;48.45;5.53;;;7.10;81.00;;;;;;4133019;28;20018;-84
2022/01/27 08:51:00;;;;;;;40.45;6.30;;;7.10;80.90;;;;;;4168757;28;20577;-83
2022/01/27 08:53:00;;;;;;;35.55;5.57;;;7.10;80.80;;;;;;4153765;28;20033;-84
2022/01/27 08:55:02;;;;;;;60.60;7.65;;;7.10;80.70;;;;;;4151603;28;20052;-83
2022/01/27 08:57:03;;;;;;;45.38;5.93;;;7.10;80.60;;;;;;4150531;28;20032;-84
2022/01/27 08:59:04;;;;;;;48.75;7.30;;;7.10;80.50;;;;;;4150536;28;20037;-83
2022/01/27 09:01:04;;;;;;;38.35;6.65;;;7.10;80.40;;;;;;4151470;28;20084;-84
2022/01/27 09:03:05;;;;;;;46.08;6.03;;;7.10;80.40;;;;;;4151010;28;20033;-83
2022/01/27 09:05:06;;;;;;;44.17;5.90;;;7.10;80.40;;;;;;4148334;28;20809;-84
2022/01/27 09:07:06;;;;;;;36.80;5.93;;;7.10;80.40;;;;;;4149741;28;20084;-84
2022/01/27 09:09:07;;;;;;;36.78;5.32;;;7.10;80.60;;;;;;4149660;28;20034;-84
2022/01/27 09:11:08;;;;;;;50.67;7.57;;;7.10;80.30;;;;;;4151769;28;20663;-84
2022/01/27 09:13:08;;;;;;;48.15;5.82;;;7.10;80.30;;;;;;4152458;28;20105;-84
2022/01/27 09:15:09;;;;;;;39.30;5.57;;;7.10;80.00;;;;;;4149880;28;20036;-84
2022/01/27 09:17:10;;;;;;;40.60;5.38;;;7.20;79.90;;;;;;4148214;28;20034;-83
2022/01/27 09:19:11;;;;;;;42.28;5.18;;;7.20;79.10;;;;;;4164634;28;20039;-84
2022/01/27 09:21:18;;;;;;;36.85;6.72;;;7.20;78.80;;;;;;4149822;28;20240;-84
2022/01/27 09:23:18;;;;;;;48.65;6.40;;;7.20;78.20;;;;;;4151537;28;20030;-84
2022/01/27 09:25:23;;;;;;;43.20;5.15;;;7.20;77.50;;;;;;4147325;28;20073;-84
2022/01/27 09:27:24;;;;;;;41.55;5.30;;;7.20;77.50;;;;;;4148502;28;20081;-84
2022/01/27 09:29:25;;;;;;;43.75;6.57;;;7.20;76.60;;;;;;4148533;28;20458;-84
2022/01/27 09:31:26;;;;;;;46.80;5.90;;;7.20;76.80;;;;;;4132839;28;20057;-84
2022/01/27 09:33:27;;;;;;;38.25;5.38;;;7.20;76.90;;;;;;4149224;28;20155;-84
2022/01/27 09:35:29;;;;;;;38.50;5.18;;;7.20;76.90;;;;;;4148681;28;20025;-84
2022/01/27 09:37:30;;;;;;;45.13;5.70;;;7.20;76.20;;;;;;4150122;28;20507;-84
2022/01/27 09:39:32;;;;;;;47.13;6.20;;;7.20;76.00;;;;;;4147877;28;20037;-84
2022/01/27 09:41:36;;;;;;;45.25;6.25;;;7.20;75.90;;;;;;4148628;28;20487;-84
2022/01/27 09:43:36;;;;;;;44.08;5.72;;;7.20;75.60;;;;;;4152295;28;20371;-84
2022/01/27 09:45:37;;;;;;;38.70;5.90;;;7.20;74.20;;;;;;4149531;28;20044;-84
2022/01/27 09:47:41;;;;;;;43.65;6.22;;;7.20;73.80;;;;;;4165237;28;20031;-84
2022/01/27 09:49:50;;;;;;;27.38;4.82;;;7.30;72.70;;;;;;4148135;28;20033;-83
2022/01/27 09:51:50;;;;;;;35.70;4.28;;;7.30;72.60;;;;;;4150889;28;20045;-84
2022/01/27 09:53:54;;;;;;;40.83;6.20;;;7.30;70.60;;;;;;4150279;28;20029;-84
2022/01/27 09:55:55;;;;;;;39.83;4.28;;;7.20;70.40;;;;;;4149151;28;20112;-84
2022/01/27 09:57:58;;;;;;;36.05;4.38;;;7.20;70.30;;;;;;4166541;28;20033;-84
2022/01/27 09:59:59;;;;;;;31.58;4.55;;;7.20;70.00;;;;;;4132410;28;20022;-83
2022/01/27 10:02:07;;;;;;;39.22;4.55;;;7.30;70.30;;;;;;4150300;28;20212;-84
2022/01/27 10:04:09;;;;;;;28.23;5.18;;;7.30;69.70;;;;;;4142635;28;20411;-84
2022/01/27 10:06:14;;;;;;;27.67;4.03;;;7.30;67.70;;;;;;4149919;28;20108;-84
2022/01/27 10:08:18;;;;;;;28.73;4.05;;;7.30;68.10;;;;;;4151779;28;20134;-84
2022/01/27 10:10:19;;;;;;;34.25;4.82;;;7.30;66.70;;;;;;4165368;28;20068;-84
2022/01/27 10:12:31;;;;;;;37.35;4.50;;;7.30;67.30;;;;;;4150686;28;20033;-84
2022/01/27 10:14:37;;;;;;;27.55;3.92;;;7.30;66.90;;;;;;4149965;28;20088;-83
2022/01/27 10:16:41;;;;;;;24.00;4.57;;;7.30;66.90;;;;;;4120057;28;20138;-84
2022/01/27 10:18:44;;;;;;;32.40;4.88;;;7.30;67.20;;;;;;4150273;28;20026;-84
2022/01/27 10:21:06;;;;;;;27.58;4.07;;;7.30;67.10;;;;;;4150341;28;20549;-83
2022/01/27 10:23:09;;;;;;;27.88;3.88;;;7.30;67.30;;;;;;4147262;28;20029;-84
2022/01/27 10:25:20;;;;;;;34.88;4.00;;;7.30;67.30;;;;;;4156670;28;20037;-84
2022/01/27 10:29:34;;;;;;;34.22;5.32;;;7.30;67.40;;;;;;4150032;28;20028;-84
2022/01/27 10:31:38;;;;;;;36.17;4.85;;;7.30;68.50;;;;;;4148902;28;20241;-83
2022/01/27 10:33:44;;;;;;;42.20;5.55;;;7.30;69.40;;;;;;4154120;28;20553;-83
2022/01/27 10:35:44;;;;;;;39.85;4.53;;;7.30;69.90;;;;;;4148892;28;20061;-84
2022/01/27 10:37:58;;;;;;;40.80;4.88;;;7.20;69.10;;;;;;4139897;28;20072;-83
2022/01/27 10:39:59;;;;;;;;;;;7.20;68.80;;;;;;4168083;28;20029;-83
2022/01/27 10:42:00;;;;;;;35.15;5.30;;;7.20;68.20;;;;;;4152543;28;19974;-83
2022/01/27 10:44:15;;;;;;;28.15;3.50;;;7.20;67.80;;;;;;4153766;28;20172;-83
2022/01/27 10:46:25;;;;;;;34.88;5.25;;;7.30;67.50;;;;;;4167647;28;20048;-84
2022/01/27 10:48:29;;;;;;;31.48;4.35;;;7.30;67.50;;;;;;4142674;28;20049;-83
2022/01/27 10:50:31;;;;;;;18.15;3.15;;;7.30;66.90;;;;;;4151381;28;20033;-84
2022/01/27 10:52:43;;;;;;;22.05;3.40;;;7.30;67.00;;;;;;4153785;28;20068;-83
2022/01/27 10:54:51;;;;;;;34.80;4.70;;;7.30;66.20;;;;;;4151712;28;22097;-83
2022/01/27 10:56:52;;;;;;;30.60;4.43;;;7.40;65.70;;;;;;4127117;28;20482;-83
2022/01/27 10:58:53;;;;;;;43.15;5.32;;;7.40;65.90;;;;;;4164813;28;20039;-83
2022/01/27 11:00:58;;;;;;;31.70;4.60;;;7.40;65.90;;;;;;4166719;28;20044;-84
2022/01/27 11:03:03;;;;;;;35.22;4.15;;;7.40;66.70;;;;;;4147191;28;20487;-83
2022/01/27 11:05:16;;;;;;;47.67;7.72;;;7.40;67.40;;;;;;4139545;28;20026;-83
2022/01/27 11:07:21;;;;;;;31.83;4.47;;;7.40;67.50;;;;;;4165698;28;20532;-84
2022/01/27 11:09:21;;;;;;;33.33;4.60;;;7.40;65.80;;;;;;4151162;28;20394;-84
2022/01/27 11:11:26;;;;;;;34.85;4.55;;;7.40;65.80;;;;;;4168528;28;20037;-83